Time;durP1;ratioP1;P1;durP2;ratioP2;P2;SDS_P1;SDS_P2;PMS_P1;PMS_P2;Temp;Humidity;BMP_temperature;BMP_pressure;BME280_temperature;BME280_humidity;BME280_pressure;Samples;Min_cycle;Max_cycle;Signal;HPM_P1;HPM_P2
2021/12/25 00:01:41;;;;;;;7.25;1.40;;;;;;;;;;5093706;28;20048;-74
2021/12/25 00:04:08;;;;;;;4.72;0.95;;;;;;;;;;5093966;28;20484;-73
2021/12/25 00:06:35;;;;;;;2.45;1.30;;;;;;;;;;5094624;28;20056;-76
2021/12/25 00:09:02;;;;;;;6.78;1.55;;;;;;;;;;5093613;28;20054;-76
2021/12/25 00:11:28;;;;;;;3.45;1.33;;;;;;;;;;5081595;28;20144;-76
2021/12/25 00:13:54;;;;;;;6.35;1.30;;;;;;;;;;5074092;28;20044;-75
2021/12/25 00:16:20;;;;;;;1.20;1.08;;;;;;;;;;5074149;28;20078;-76
2021/12/25 00:18:46;;;;;;;4.72;1.13;;;;;;;;;;5073544;28;20078;-76
2021/12/25 00:21:12;;;;;;;;;;;-1.00;99.90;;;;;;5074447;28;20095;-74
2021/12/25 00:23:38;;;;;;;6.95;1.13;;;;;;;;;;5114509;27;19920;-76
2021/12/25 00:26:07;;;;;;;4.45;1.20;;;;;;;;;;5073878;28;20052;-76
2021/12/25 00:36:12;;;;;;;3.40;1.30;;;;;;;;;;5083939;28;20052;-75
2021/12/25 00:38:41;;;;;;;4.97;1.20;;;;;;;;;;5092261;28;20110;-75
2021/12/25 00:41:08;;;;;;;4.82;1.13;;;;;;;;;;5093948;28;20055;-74
2021/12/25 00:43:34;;;;;;;5.05;1.20;;;;;;;;;;5075734;28;20093;-74
2021/12/25 00:46:00;;;;;;;14.95;1.70;;;;;;;;;;5090891;28;20044;-73
2021/12/25 00:48:27;;;;;;;5.47;1.27;;;;;;;;;;5093586;28;20070;-73
2021/12/25 00:50:53;;;;;;;7.10;1.70;;;;;;;;;;5092970;28;20051;-73
2021/12/25 00:53:19;;;;;;;4.15;1.10;;;;;;;;;;5092684;28;20062;-72
2021/12/25 00:55:45;;;;;;;4.70;1.10;;;;;;;;;;5088678;28;20064;-73
2021/12/25 00:58:12;;;;;;;7.05;1.13;;;;;;;;;;5072365;28;20396;-72
2021/12/25 01:00:39;;;;;;;6.63;1.58;;;;;;;;;;5072494;28;20109;-71
2021/12/25 01:03:05;;;;;;;5.07;1.15;;;;;;;;;;5073212;28;20048;-72
2021/12/25 01:05:31;;;;;;;7.55;1.55;;;;;;;;;;5072510;28;20044;-72
2021/12/25 01:07:57;;;;;;;3.17;1.00;;;;;;;;;;5073540;28;20093;-73
2021/12/25 01:10:23;;;;;;;5.63;1.42;;;;;;;;;;5106252;28;20125;-70
2021/12/25 01:15:24;;;;;;;1.10;1.00;;;;;;;;;;5073218;28;20567;-72
2021/12/25 01:28:39;;;;;;;1.83;0.90;;;;;;;;;;5072956;28;20477;-71
2021/12/25 01:31:04;;;;;;;4.95;1.27;;;;;;;;;;5072541;28;20416;-71
2021/12/25 01:48:59;;;;;;;2.95;0.90;;;;;;;;;;5097468;28;20087;-70
2021/12/25 01:51:25;;;;;;;5.15;1.13;;;;;;;;;;5097335;28;20051;-69
2021/12/25 01:53:51;;;;;;;3.78;1.10;;;;;;;;;;5097120;28;20131;-68
2021/12/25 01:56:18;;;;;;;4.05;1.20;;;;;;;;;;5096126;28;20052;-69
2021/12/25 01:58:44;;;;;;;2.22;1.00;;;;;;;;;;5088752;28;20059;-70
2021/12/25 02:01:10;;;;;;;2.80;1.20;;;;;;;;;;5076600;28;20063;-69
2021/12/25 02:03:37;;;;;;;1.88;1.10;;;;;;;;;;5076660;28;20048;-70
2021/12/25 02:06:04;;;;;;;1.50;1.10;;;;;;;;;;5076751;28;20400;-69
2021/12/25 02:08:30;;;;;;;1.67;0.90;;;;;;;;;;5076489;28;20468;-70
2021/12/25 02:10:56;;;;;;;4.65;0.90;;;;;;;;;;5077584;28;20040;-70
2021/12/25 02:13:23;;;;;;;5.65;1.08;;;;;;;;;;5076160;28;20477;-70
2021/12/25 02:15:51;;;;;;;;;;;;;;;;;;5076598;28;20056;-69
2021/12/25 02:18:27;;;;;;;4.65;1.42;;;;;;;;;;5076354;28;19920;-69
2021/12/25 02:21:10;;;;;;;3.47;1.15;;;;;;;;;;5076734;28;20052;-69
2021/12/25 02:23:37;;;;;;;2.72;1.00;;;;;;;;;;5077326;28;20101;-70
2021/12/25 02:26:03;;;;;;;1.63;0.80;;;;;;;;;;5076289;28;20049;-69
2021/12/25 02:28:29;;;;;;;;;;;;;;;;;;5076508;28;20049;-71
2021/12/25 02:30:57;;;;;;;1.88;0.85;;;;;;;;;;5075987;28;20369;-70
2021/12/25 02:33:24;;;;;;;2.65;0.88;;;;;;;;;;5076382;28;20048;-71
2021/12/25 02:35:51;;;;;;;5.50;1.00;;;;;;;;;;5076431;28;20047;-70
2021/12/25 02:38:17;;;;;;;1.85;1.00;;;;;;;;;;5076113;28;20096;-71
2021/12/25 02:40:43;;;;;;;1.38;0.80;;;;;;;;;;5075794;28;20041;-69
2021/12/25 02:43:09;;;;;;;4.30;0.90;;;;;;;;;;5075942;28;20048;-75
2021/12/25 02:45:35;;;;;;;1.55;1.35;;;;;;;;;;5074927;28;20045;-72
2021/12/25 02:48:07;;;;;;;3.80;0.80;;;;;;;;;;5093351;28;20088;-71
2021/12/25 02:50:33;;;;;;;3.45;1.00;;;;;;;;;;5096188;28;20098;-72
2021/12/25 02:53:01;;;;;;;1.98;1.00;;;;;;;;;;5095318;28;20464;-72
2021/12/25 02:55:27;;;;;;;4.22;1.17;;;;;;;;;;5095892;28;20044;-71
2021/12/25 02:57:54;;;;;;;4.53;0.90;;;;;;;;;;5094624;28;20044;-72
2021/12/25 03:00:38;;;;;;;5.28;0.98;;;;;;;;;;5094339;28;20372;-71
2021/12/25 03:03:05;;;;;;;3.67;0.90;;;;;;;;;;5096158;28;20090;-71
2021/12/25 03:05:31;;;;;;;1.58;0.90;;;;;;;;;;5095743;28;20084;-72
2021/12/25 03:07:57;;;;;;;;;;;-2.20;99.90;;;;;;5095214;28;20059;-71
2021/12/25 03:10:23;;;;;;;2.95;0.90;;;;;;;;;;5093906;28;19920;-71
2021/12/25 03:12:53;;;;;;;1.42;0.90;;;;;;;;;;5095429;28;20412;-71
2021/12/25 03:15:28;;;;;;;4.70;1.40;;;;;;;;;;5094334;28;20047;-69
2021/12/25 03:17:55;;;;;;;3.88;0.80;;;;;;;;;;5095573;28;20051;-71
2021/12/25 03:20:21;;;;;;;4.00;0.85;;;;;;;;;;5095408;28;20131;-71
2021/12/25 03:22:47;;;;;;;1.15;0.90;;;;;;;;;;5079259;28;20045;-71
2021/12/25 03:25:14;;;;;;;1.45;0.80;;;;;;;;;;5075190;28;20067;-71
2021/12/25 03:27:41;;;;;;;1.50;0.73;;;;;;;;;;5057207;28;20086;-70
2021/12/25 03:30:08;;;;;;;4.28;0.90;;;;;;;;;;5073819;28;20044;-71
2021/12/25 03:32:35;;;;;;;0.75;0.73;;;;;;;;;;5074963;28;20048;-70
2021/12/25 03:35:01;;;;;;;3.20;0.80;;;;;;;;;;5075929;28;20120;-70
2021/12/25 03:37:27;;;;;;;1.83;1.00;;;;;;;;;;5074457;28;20052;-70
2021/12/25 03:39:54;;;;;;;5.45;1.00;;;;;;;;;;5074821;28;20511;-70
2021/12/25 03:42:20;;;;;;;1.75;1.17;;;;;;;;;;5074543;28;20048;-70
2021/12/25 03:44:46;;;;;;;3.45;1.00;;;;;;;;;;5074793;28;20048;-70
2021/12/25 03:47:25;;;;;;;1.50;1.33;;;;;;;;;;5085625;28;20051;-70
2021/12/25 03:58:09;;;;;;;3.63;1.00;;;;;;;;;;5094873;28;20129;-70
2021/12/25 04:00:37;;;;;;;2.50;0.80;;;;;;;;;;5090320;28;20511;-70
2021/12/25 04:03:08;;;;;;;2.17;0.82;;;;;;;;;;5094606;28;20044;-70
2021/12/25 04:05:36;;;;;;;1.42;0.70;;;;;;;;;;5094674;28;20079;-69
2021/12/25 04:10:34;;;;;;;3.78;0.77;;;;;;;;;;5094240;28;20136;-69
2021/12/25 04:13:01;;;;;;;3.65;0.82;;;;;;;;;;5090687;28;20056;-69
2021/12/25 04:15:27;;;;;;;1.13;0.80;;;;;;;;;;5094273;28;20044;-69
2021/12/25 04:17:53;;;;;;;0.68;0.68;;;;;;;;;;5092798;28;20040;-68
2021/12/25 04:20:20;;;;;;;0.80;0.75;;;;;;;;;;5094310;28;20059;-68
2021/12/25 04:22:57;;;;;;;1.60;0.75;;;;;;;;;;5094239;28;20048;-68
2021/12/25 04:25:27;;;;;;;5.65;0.98;;;;;;;;;;5093017;28;20485;-68
2021/12/25 04:27:54;;;;;;;1.35;0.77;;;;;;;;;;5094215;28;20055;-68
2021/12/25 04:49:53;;;;;;;2.92;0.95;;;;;;;;;;5089090;28;20070;-67
2021/12/25 05:03:30;;;;;;;1.90;0.90;;;;;;;;;;5073530;28;20446;-67
2021/12/25 05:05:56;;;;;;;1.25;0.75;;;;;;;;;;5072616;28;20044;-67
2021/12/25 05:08:22;;;;;;;0.90;0.80;;;;;;;;;;5073413;28;20190;-67
2021/12/25 05:10:48;;;;;;;1.35;1.08;;;;;;;;;;5073421;28;20049;-67
2021/12/25 05:13:14;;;;;;;1.70;0.90;;;;;;;;;;5080354;28;20040;-67
2021/12/25 05:15:40;;;;;;;2.60;1.05;;;;;;;;;;5091913;28;20502;-67
2021/12/25 05:18:06;;;;;;;0.90;0.90;;;;;;;;;;5093470;28;20420;-67
2021/12/25 05:20:32;;;;;;;1.75;0.98;;;;;;;;;;5093446;28;20399;-66
2021/12/25 05:22:58;;;;;;;1.25;0.80;;;;;;;;;;5093191;28;20048;-66
2021/12/25 05:25:24;;;;;;;3.55;0.90;;;;;;;;;;5091284;28;20484;-67
2021/12/25 05:27:50;;;;;;;4.13;1.02;;;;;;;;;;5093374;28;20077;-67
2021/12/25 05:30:18;;;;;;;2.90;0.90;;;;;;;;;;5093399;28;20444;-66
2021/12/25 05:32:45;;;;;;;2.50;0.93;;;;;;;;;;5093429;28;20044;-67
2021/12/25 05:35:11;;;;;;;2.28;0.93;;;;;;;;;;5093221;28;20051;-67
2021/12/25 05:37:37;;;;;;;1.05;0.73;;;;;;;;;;5091289;28;20105;-67
2021/12/25 05:40:04;;;;;;;1.33;0.80;;;;;;;;;;5093251;28;20059;-67
2021/12/25 05:42:31;;;;;;;1.35;0.82;;;;;;;;;;5092953;28;20048;-66
2021/12/25 05:44:56;;;;;;;;;;;-3.00;99.90;;;;;;5093592;28;20036;-67
2021/12/25 05:47:22;;;;;;;2.95;0.93;;;;;;;;;;5092914;28;19943;-66
2021/12/25 05:49:49;;;;;;;1.08;0.80;;;;;;;;;;5093213;28;20044;-66
2021/12/25 05:52:15;;;;;;;1.77;0.95;;;;;;;;;;5074648;28;20052;-67
2021/12/25 05:54:41;;;;;;;4.35;0.98;;;;;;;;;;5073023;28;20385;-66
2021/12/25 05:57:07;;;;;;;4.10;1.02;;;;;;;;;;5072954;28;20432;-66
2021/12/25 05:59:33;;;;;;;0.80;0.73;;;;;;;;;;5072892;28;20055;-66
2021/12/25 06:01:59;;;;;;;4.03;0.90;;;;;;;;;;5072828;28;20106;-66
2021/12/25 06:04:25;;;;;;;2.47;0.98;;;;;;;;;;5073839;28;20083;-66
2021/12/25 06:06:51;;;;;;;2.90;0.90;;;;;;;;;;5072693;28;20090;-67
2021/12/25 06:09:18;;;;;;;2.47;0.98;;;;;;;;;;5071793;28;20094;-66
2021/12/25 06:11:45;;;;;;;;;;;;;;;;;;5073134;28;20135;-67
2021/12/25 06:14:18;;;;;;;5.57;1.15;;;;;;;;;;5072705;28;20376;-67
2021/12/25 06:16:44;;;;;;;4.35;1.02;;;;;;;;;;5075392;28;20048;-66
2021/12/25 06:19:10;;;;;;;2.83;1.00;;;;;;;;;;5076286;28;20048;-67
2021/12/25 06:21:37;;;;;;;2.30;0.80;;;;;;;;;;5076044;28;20048;-67
2021/12/25 06:24:05;;;;;;;3.50;1.02;;;;;;;;;;5076296;28;20048;-67
2021/12/25 06:26:31;;;;;;;5.18;1.15;;;;;;;;;;5076497;28;20055;-67
2021/12/25 06:28:57;;;;;;;;;;;;;;;;;;5076554;28;20052;-67
2021/12/25 06:31:24;;;;;;;1.67;0.90;;;;;;;;;;5076136;28;20031;-66
2021/12/25 06:33:50;;;;;;;3.47;1.30;;;;;;;;;;5074927;28;20150;-67
2021/12/25 06:36:16;;;;;;;2.33;0.70;;;;;;;;;;5075686;28;20127;-67
2021/12/25 06:38:42;;;;;;;5.93;1.40;;;;;;;;;;5076265;28;20598;-67
2021/12/25 06:41:10;;;;;;;2.58;0.90;;;;;;;;;;5075976;28;20480;-67
2021/12/25 06:43:37;;;;;;;3.60;1.42;;;;;;;;;;5076006;28;20048;-67
2021/12/25 06:46:03;;;;;;;5.22;1.20;;;;;;;;;;5108918;28;20447;-67
2021/12/25 06:48:30;;;;;;;1.40;1.02;;;;;;;;;;5075745;28;20048;-68
2021/12/25 06:50:56;;;;;;;5.97;1.10;;;;;;;;;;5093405;28;20135;-67
2021/12/25 06:53:22;;;;;;;5.03;1.00;;;;;;;;;;5096007;28;20040;-67
2021/12/25 06:55:48;;;;;;;3.50;1.20;;;;;;;;;;5094480;28;20047;-67
2021/12/25 06:58:14;;;;;;;3.80;1.10;;;;;;;;;;5095933;28;20401;-67
2021/12/25 07:00:40;;;;;;;2.65;1.10;;;;;;;;;;5095856;28;20491;-66
2021/12/25 07:03:06;;;;;;;3.60;1.15;;;;;;;;;;5081386;28;20056;-68
2021/12/25 07:05:32;;;;;;;4.80;1.17;;;;;;;;;;5075335;28;20049;-68
2021/12/25 07:07:58;;;;;;;1.90;1.10;;;;;;;;;;5075556;28;20105;-67
2021/12/25 07:10:24;;;;;;;1.60;0.90;;;;;;;;;;5075467;28;20071;-67
2021/12/25 07:12:53;;;;;;;3.85;1.00;;;;;;;;;;5075326;28;20055;-68
2021/12/25 07:15:19;;;;;;;4.55;1.25;;;;;;;;;;5075058;28;20051;-68
2021/12/25 07:17:45;;;;;;;3.08;1.10;;;;;;;;;;5075271;28;20469;-68
2021/12/25 07:20:12;;;;;;;2.30;1.30;;;;;;;;;;5075117;28;20049;-68
2021/12/25 07:22:38;;;;;;;10.48;1.75;;;;;;;;;;5075207;28;20047;-68
2021/12/25 07:25:05;;;;;;;2.08;1.30;;;;;;;;;;5075184;28;20094;-68
2021/12/25 07:27:31;;;;;;;3.42;1.05;;;;;;;;;;5082613;28;20044;-68
2021/12/25 07:29:57;;;;;;;3.35;1.20;;;;;;;;;;5095156;28;20055;-68
2021/12/25 07:32:23;;;;;;;5.75;1.25;;;;;;;;;;5095245;28;20083;-68
2021/12/25 07:34:50;;;;;;;4.25;1.40;;;;;;;;;;5094698;28;20495;-69
2021/12/25 07:37:17;;;;;;;4.25;1.20;;;;;;;;;;5095072;28;20147;-69
2021/12/25 07:39:43;;;;;;;3.97;1.75;;;;;;;;;;5093346;28;20040;-68
2021/12/25 07:42:10;;;;;;;3.00;1.23;;;;;;;;;;5095054;28;20177;-69
2021/12/25 07:44:36;;;;;;;2.83;1.30;;;;;;;;;;5095002;28;20040;-69
2021/12/25 07:47:04;;;;;;;7.45;1.35;;;;;;;;;;5094935;28;20396;-69
2021/12/25 07:49:32;;;;;;;6.03;1.40;;;;;;;;;;5093728;28;20047;-69
2021/12/25 07:51:58;;;;;;;6.18;1.20;;;;;;;;;;5094296;28;20055;-69
2021/12/25 07:54:24;;;;;;;4.03;1.45;;;;;;;;;;5094501;28;20496;-69
2021/12/25 07:56:50;;;;;;;3.55;1.70;;;;;;;;;;5093797;28;20392;-69
2021/12/25 07:59:16;;;;;;;3.17;1.50;;;;;;;;;;5094664;28;20048;-69
2021/12/25 08:01:43;;;;;;;3.55;1.50;;;;;;;;;;5094667;28;20453;-69
2021/12/25 08:04:10;;;;;;;3.45;1.75;;;;;;;;;;5075650;28;20397;-70
2021/12/25 08:06:36;;;;;;;4.88;1.65;;;;;;;;;;5074187;28;20063;-70
2021/12/25 08:09:04;;;;;;;13.95;5.22;;;;;;;;;;5074375;28;20041;-70
2021/12/25 08:11:30;;;;;;;14.80;4.82;;;;;;;;;;5074238;28;20051;-70
2021/12/25 08:13:56;;;;;;;16.60;5.15;;;;;;;;;;5074191;28;20048;-70
2021/12/25 08:16:22;;;;;;;19.30;5.72;;;;;;;;;;5075211;28;20408;-70
2021/12/25 08:18:49;;;;;;;13.55;3.58;;;;;;;;;;5073920;28;20052;-70
2021/12/25 08:21:15;;;;;;;7.13;3.35;;;;;;;;;;5074035;28;20056;-70
2021/12/25 08:23:41;;;;;;;12.32;3.65;;;;;;;;;;5073971;28;20083;-70
2021/12/25 08:26:08;;;;;;;13.45;3.70;;;;;;;;;;5074044;28;20510;-70
2021/12/25 08:28:34;;;;;;;5.25;2.75;;;;;;;;;;5074840;28;20044;-73
2021/12/25 08:31:01;;;;;;;8.40;3.08;;;;;;;;;;5073812;28;20048;-70
2021/12/25 08:33:27;;;;;;;6.05;2.25;;;;;;;;;;5072535;28;20109;-70
2021/12/25 08:35:53;;;;;;;8.75;3.33;;;;;;;;;;5073403;28;20044;-71
2021/12/25 08:38:19;;;;;;;6.65;2.80;;;;;;;;;;5087307;28;20140;-70
2021/12/25 08:40:45;;;;;;;5.63;2.38;;;;;;;;;;5081636;28;20458;-70
2021/12/25 08:43:14;;;;;;;10.68;2.70;;;;;;;;;;5088285;28;20145;-70
2021/12/25 08:45:46;;;;;;;7.53;2.63;;;;;;;;;;5092525;28;20066;-71
2021/12/25 08:48:20;;;;;;;9.27;2.00;;;;;;;;;;5092654;28;20091;-70
2021/12/25 08:50:49;;;;;;;5.32;1.35;;;;;;;;;;5093155;28;20572;-70
2021/12/25 08:53:15;;;;;;;2.42;1.50;;;;;;;;;;5085025;28;20040;-70
2021/12/25 08:55:41;;;;;;;5.90;1.98;;;;;;;;;;5093023;28;20093;-70
2021/12/25 08:58:07;;;;;;;8.02;2.53;;;;;;;;;;5090773;28;20055;-70
2021/12/25 09:00:33;;;;;;;13.00;4.97;;;;;;;;;;5093161;28;20550;-69
2021/12/25 09:02:59;;;;;;;7.95;3.92;;;;;;;;;;5093371;28;20056;-70
2021/12/25 09:05:26;;;;;;;7.50;3.10;;;;;;;;;;5093600;28;20047;-70
2021/12/25 09:07:52;;;;;;;5.43;2.40;;;;;;;;;;5088397;28;20055;-70
2021/12/25 09:10:18;;;;;;;4.88;2.40;;;;;;;;;;5072266;28;20123;-70
2021/12/25 09:12:45;;;;;;;7.28;2.40;;;;;;;;;;5073181;28;20407;-70
2021/12/25 09:15:12;;;;;;;5.43;2.30;;;;;;;;;;5073821;28;20500;-70
2021/12/25 09:17:38;;;;;;;;;;;;;;;;;;5093417;28;20440;-70
2021/12/25 09:20:05;;;;;;;6.72;2.22;;;;;;;;;;5092380;28;19920;-69
2021/12/25 09:22:31;;;;;;;6.00;2.63;;;;;;;;;;5090358;28;20075;-70
2021/12/25 09:24:57;;;;;;;5.38;1.90;;;;;;;;;;5093365;28;20101;-69
2021/12/25 09:27:23;;;;;;;5.70;1.92;;;;;;;;;;5092762;28;20496;-72
2021/12/25 09:29:49;;;;;;;6.00;1.50;;;;;;;;;;5079998;28;20048;-70
2021/12/25 09:32:16;;;;;;;8.77;2.03;;;;;;;;;;5072232;28;20559;-70
2021/12/25 09:34:42;;;;;;;3.00;1.70;;;;;;;;;;5073069;28;20044;-70
2021/12/25 09:37:08;;;;;;;4.53;1.63;;;;;;;;;;5072932;28;20382;-70
2021/12/25 09:39:34;;;;;;;2.28;1.40;;;;;;;;;;5072813;28;20058;-70
2021/12/25 09:42:01;;;;;;;5.13;2.10;;;;;;;;;;5073083;28;20052;-70
2021/12/25 09:44:27;;;;;;;5.13;2.08;;;;;;;;;;5071909;28;20064;-71
2021/12/25 09:46:53;;;;;;;5.25;1.50;;;;;;;;;;5073112;28;20052;-72
2021/12/25 09:49:19;;;;;;;;;;;-2.40;99.90;;;;;;5073657;28;20048;-71
2021/12/25 09:51:45;;;;;;;3.08;1.40;;;;;;;;;;5095152;28;20368;-72
2021/12/25 09:54:14;;;;;;;5.68;2.03;;;;;;;;;;5097068;28;20044;-71
2021/12/25 09:56:41;;;;;;;4.38;1.92;;;;;;;;;;5097174;28;20377;-71
2021/12/25 09:59:10;;;;;;;3.22;1.85;;;;;;;;;;5096918;28;20055;-71
2021/12/25 10:01:36;;;;;;;5.43;1.48;;;;;;;;;;5080120;28;20444;-71
2021/12/25 10:04:03;;;;;;;2.40;1.70;;;;;;;;;;5076856;28;20047;-70
2021/12/25 10:06:34;;;;;;;2.67;1.38;;;;;;;;;;5075648;28;20044;-71
2021/12/25 10:09:11;;;;;;;6.43;2.10;;;;;;;;;;5076804;28;20044;-71
2021/12/25 10:11:38;;;;;;;4.40;1.50;;;;;;;;;;5087298;28;20488;-71
2021/12/25 10:14:04;;;;;;;3.28;1.40;;;;;;;;;;5095486;28;20127;-71
2021/12/25 10:16:32;;;;;;;4.97;1.40;;;;;;;;;;5096759;28;20402;-71
2021/12/25 10:19:18;;;;;;;3.15;1.08;;;;;;;;;;5096015;28;20087;-71
2021/12/25 10:21:44;;;;;;;3.40;0.90;;;;;;;;;;5087098;28;20040;-71
2021/12/25 10:24:25;;;;;;;3.05;1.38;;;;;;;;;;5076342;28;20040;-71
2021/12/25 10:26:52;;;;;;;2.95;1.30;;;;;;;;;;5076505;28;20045;-72
2021/12/25 10:29:22;;;;;;;2.00;1.15;;;;;;;;;;5076113;28;20048;-71
2021/12/25 10:31:48;;;;;;;6.65;1.13;;;;;;;;;;5081495;28;20044;-70
2021/12/25 10:34:19;;;;;;;7.43;1.35;;;;;;;;;;5096486;28;20040;-71
2021/12/25 10:36:45;;;;;;;1.58;1.00;;;;;;;;;;5096117;28;20138;-71
2021/12/25 10:39:11;;;;;;;4.45;1.60;;;;;;;;;;5096537;28;20088;-71
2021/12/25 10:41:49;;;;;;;3.92;1.60;;;;;;;;;;5093442;28;20055;-71
2021/12/25 10:44:17;;;;;;;13.70;3.88;;;;;;;;;;5096389;28;20044;-71
2021/12/25 10:46:57;;;;;;;5.78;2.17;;;;;;;;;;5096151;28;20044;-72
2021/12/25 10:49:24;;;;;;;4.22;1.40;;;;;;;;;;5095218;28;20051;-71
2021/12/25 10:51:50;;;;;;;3.47;1.80;;;;;;;;;;5096040;28;20100;-71
2021/12/25 10:54:18;;;;;;;1.67;1.10;;;;;;;;;;5094284;28;20040;-72
2021/12/25 10:56:45;;;;;;;5.72;1.02;;;;;;;;;;5095716;28;20097;-71
2021/12/25 10:59:12;;;;;;;3.33;1.10;;;;;;;;;;5095943;28;20084;-73
2021/12/25 11:01:43;;;;;;;4.20;1.35;;;;;;;;;;5095511;28;20499;-72
2021/12/25 11:04:25;;;;;;;4.75;1.40;;;;;;;;;;5094127;28;20074;-72
2021/12/25 11:06:51;;;;;;;3.65;1.30;;;;;;;;;;5095483;28;20479;-72
2021/12/25 11:09:17;;;;;;;2.88;1.27;;;;;;;;;;5094795;28;20080;-71
2021/12/25 11:11:43;;;;;;;2.30;1.15;;;;;;;;;;5083121;28;20047;-72
2021/12/25 11:14:13;;;;;;;2.65;1.50;;;;;;;;;;5095133;28;20071;-73
2021/12/25 11:16:40;;;;;;;4.32;1.40;;;;;;;;;;5085463;28;20048;-73
2021/12/25 11:21:54;;;;;;;3.60;1.30;;;;;;;;;;5091977;28;20105;-73
2021/12/25 11:24:20;;;;;;;6.45;2.60;;;;;;;;;;5089893;28;20075;-74
2021/12/25 11:26:46;;;;;;;;;;;;;;;;;;5094380;28;20040;-73
2021/12/25 11:29:13;;;;;;;4.38;1.80;;;;;;;;;;5093053;28;19969;-77
2021/12/25 11:31:40;;;;;;;6.75;1.83;;;;;;;;;;5091564;28;20056;-77
2021/12/25 11:34:06;;;;;;;3.78;1.77;;;;;;;;;;5091991;28;20543;-75
2021/12/25 11:36:33;;;;;;;5.40;2.83;;;;;;;;;;5093962;28;20125;-75
2021/12/25 11:38:59;;;;;;;;;;;-1.30;99.90;;;;;;5093652;28;20117;-73
2021/12/25 11:41:27;;;;;;;4.57;1.83;;;;;;;;;;5090426;28;19924;-75
2021/12/25 11:43:54;;;;;;;6.60;2.17;;;;;;;;;;5093531;28;20051;-76
2021/12/25 11:46:23;;;;;;;4.70;2.05;;;;;;;;;;5074088;28;20121;-75
2021/12/25 11:49:04;;;;;;;4.10;2.20;;;;;;;;;;5093907;28;20056;-74
2021/12/25 11:51:31;;;;;;;6.38;3.13;;;;;;;;;;5089738;28;20097;-75
2021/12/25 11:56:37;;;;;;;4.38;2.10;;;;;;;;;;5093357;28;20044;-75
2021/12/25 11:59:13;;;;;;;5.05;2.42;;;;;;;;;;5093786;28;20439;-73
2021/12/25 12:01:48;;;;;;;10.98;2.65;;;;;;;;;;5084855;28;20044;-74
2021/12/25 12:04:14;;;;;;;4.05;1.85;;;;;;;;;;5090110;28;20557;-74
2021/12/25 12:06:47;;;;;;;5.25;2.10;;;;;;;;;;5093774;28;20052;-74
2021/12/25 12:09:13;;;;;;;4.00;1.83;;;;;;;;;;5093008;28;20079;-73
2021/12/25 12:11:40;;;;;;;6.40;2.70;;;;;;;;;;5091995;28;20048;-76
2021/12/25 12:14:16;;;;;;;3.25;1.70;;;;;;;;;;5092462;28;20130;-73
2021/12/25 12:16:46;;;;;;;6.32;2.20;;;;;;;;;;5093565;28;20130;-73
2021/12/25 12:19:32;;;;;;;4.28;1.73;;;;;;;;;;5094563;28;20044;-73
2021/12/25 12:25:12;;;;;;;4.30;1.90;;;;;;;;;;5093417;28;20048;-73
2021/12/25 12:27:36;;;;;;;4.93;1.65;;;;;;;;;;5093752;28;20044;-72
2021/12/25 12:30:03;;;;;;;7.25;2.90;;;;;;;;;;5094045;28;20044;-73
2021/12/25 12:32:37;;;;;;;5.30;2.10;;;;;;;;;;5093411;28;20050;-72
2021/12/25 12:35:04;;;;;;;7.90;3.22;;;;;;;;;;5092683;28;20097;-72
2021/12/25 12:37:34;;;;;;;3.92;1.73;;;;;;;;;;5093902;28;20498;-72
2021/12/25 12:40:06;;;;;;;8.55;1.98;;;;;;;;;;5093552;28;20052;-72
2021/12/25 12:42:46;;;;;;;4.32;1.80;;;;;;;;;;5092182;28;20426;-72
2021/12/25 12:45:24;;;;;;;3.13;1.77;;;;;;;;;;5085047;28;20041;-73
2021/12/25 12:48:08;;;;;;;6.30;2.50;;;;;;;;;;5085881;28;20059;-72
2021/12/25 12:50:35;;;;;;;4.88;2.00;;;;;;;;;;5078052;28;20102;-72
2021/12/25 12:53:02;;;;;;;4.95;2.13;;;;;;;;;;5081308;28;20464;-72
2021/12/25 12:55:32;;;;;;;8.80;2.50;;;;;;;;;;5073343;28;20079;-72
2021/12/25 12:58:12;;;;;;;3.97;2.42;;;;;;;;;;5072117;28;20123;-72
2021/12/25 13:00:39;;;;;;;6.57;3.00;;;;;;;;;;5071963;28;20136;-71
2021/12/25 13:03:05;;;;;;;5.25;2.22;;;;;;;;;;5072938;28;20385;-72
2021/12/25 13:05:33;;;;;;;;;;;;;;;;;;5094312;28;20392;-70
2021/12/25 13:08:01;;;;;;;6.25;2.35;;;;;;;;;;5092150;28;19924;-70
2021/12/25 13:10:38;;;;;;;8.13;2.17;;;;;;;;;;5093621;28;20051;-70
2021/12/25 13:13:10;;;;;;;3.70;1.90;;;;;;;;;;5085339;28;20043;-70
2021/12/25 13:15:36;;;;;;;3.83;1.70;;;;;;;;;;5091383;28;20048;-70
2021/12/25 13:18:04;;;;;;;3.35;2.00;;;;;;;;;;5091994;28;20048;-70
2021/12/25 13:20:44;;;;;;;6.25;2.03;;;2.00;99.90;;;;;;5090237;28;20485;-69
2021/12/25 13:23:19;;;;;;;3.00;1.65;;;1.90;99.90;;;;;;5091577;28;20492;-70
2021/12/25 13:25:55;;;;;;;7.43;2.13;;;;;;;;;;5091461;28;20097;-69
2021/12/25 13:28:23;;;;;;;5.28;1.70;;;1.90;99.90;;;;;;5096090;28;20048;-69
2021/12/25 13:30:51;;;;;;;3.85;1.70;;;;;;;;;;5096149;28;20048;-69
2021/12/25 13:33:19;;;;;;;3.97;1.90;;;;;;;;;;5096493;28;20048;-69
2021/12/25 13:35:46;;;;;;;4.43;1.92;;;;;;;;;;5095317;28;20511;-69
2021/12/25 13:38:11;;;;;;;;;;;0.50;99.90;;;;;;5096425;28;20100;-69
2021/12/25 13:40:38;;;;;;;3.95;1.73;;;;;;;;;;5095500;28;19923;-69
2021/12/25 13:43:08;;;;;;;4.47;1.98;;;;;;;;;;5095399;28;20055;-69
2021/12/25 13:45:35;;;;;;;5.03;2.05;;;;;;;;;;5096942;28;20530;-69
2021/12/25 13:48:02;;;;;;;4.20;2.60;;;-0.60;99.90;;;;;;5096086;28;20092;-68
2021/12/25 13:50:28;;;;;;;10.10;4.85;;;;;;;;;;5096991;28;20377;-69
2021/12/25 13:53:00;;;;;;;5.78;2.60;;;;;;;;;;5097195;28;20040;-69
2021/12/25 13:55:31;;;;;;;6.30;2.58;;;;;;;;;;5097308;28;20048;-69
2021/12/25 13:57:59;;;;;;;7.38;2.33;;;;;;;;;;5097165;28;20173;-69
2021/12/25 14:00:27;;;;;;;3.80;1.73;;;;;;;;;;5096801;28;20480;-69
2021/12/25 14:02:55;;;;;;;4.50;2.08;;;;;;;;;;5097120;28;20051;-69
2021/12/25 14:05:23;;;;;;;4.70;2.03;;;;;;;;;;5096712;28;20040;-70
2021/12/25 14:07:49;;;;;;;4.07;1.90;;;;;;;;;;5096947;28;20071;-69
2021/12/25 14:10:16;;;;;;;;;;;-1.00;99.90;;;;;;5097254;28;20052;-70
2021/12/25 14:12:46;;;;;;;5.03;1.83;;;;;;;;;;5096896;28;20299;-70
2021/12/25 14:15:13;;;;;;;4.45;1.85;;;;;;;;;;5096640;28;20040;-70
2021/12/25 14:17:41;;;;;;;7.55;2.42;;;;;;;;;;5097228;28;20124;-70
2021/12/25 14:20:09;;;;;;;4.72;1.67;;;;;;;;;;5096458;28;20142;-70
2021/12/25 14:22:35;;;;;;;3.38;1.60;;;;;;;;;;5096608;28;20059;-70
2021/12/25 14:25:01;;;;;;;4.32;1.60;;;;;;;;;;5096656;28;20454;-71
2021/12/25 14:27:27;;;;;;;5.47;1.83;;;;;;;;;;5096628;28;20048;-71
2021/12/25 14:30:05;;;;;;;4.53;1.70;;;;;;;;;;5096494;28;20048;-71
2021/12/25 14:32:31;;;;;;;7.03;1.80;;;;;;;;;;5095789;28;20131;-71
2021/12/25 14:34:58;;;;;;;7.25;1.95;;;;;;;;;;5093740;28;20044;-72
2021/12/25 14:37:32;;;;;;;4.38;1.80;;;;;;;;;;5076206;28;20136;-71
2021/12/25 14:40:17;;;;;;;2.50;1.73;;;;;;;;;;5076068;28;20439;-71
2021/12/25 14:42:45;;;;;;;3.63;1.58;;;;;;;;;;5075934;28;20044;-71
2021/12/25 14:45:12;;;;;;;3.47;1.60;;;;;;;;;;5076960;28;20036;-72
2021/12/25 14:47:47;;;;;;;6.95;1.90;;;;;;;;;;5075899;28;20164;-71
2021/12/25 14:50:14;;;;;;;3.55;1.63;;;;;;;;;;5075350;28;20040;-71
2021/12/25 14:52:40;;;;;;;4.78;1.95;;;;;;;;;;5075854;28;20052;-71
2021/12/25 14:55:16;;;;;;;6.13;1.80;;;;;;;;;;5075714;28;20484;-72
2021/12/25 14:57:43;;;;;;;3.88;2.42;;;;;;;;;;5075917;28;20090;-72
2021/12/25 15:00:09;;;;;;;5.50;2.50;;;;;;;;;;5074579;28;20045;-72
2021/12/25 15:02:36;;;;;;;6.75;2.10;;;;;;;;;;5075701;28;20044;-72
2021/12/25 15:05:02;;;;;;;3.97;2.00;;;;;;;;;;5078595;28;20040;-72
2021/12/25 15:07:28;;;;;;;5.20;2.38;;;;;;;;;;5096149;28;20051;-71
2021/12/25 15:09:56;;;;;;;6.22;2.63;;;;;;;;;;5095767;28;20052;-72
2021/12/25 15:12:25;;;;;;;6.47;1.95;;;;;;;;;;5089589;28;20040;-72
2021/12/25 15:15:01;;;;;;;4.57;1.90;;;;;;;;;;5084923;28;20048;-71
2021/12/25 15:17:29;;;;;;;6.03;1.92;;;;;;;;;;5079055;28;20134;-73
2021/12/25 15:20:16;;;;;;;4.18;2.13;;;;;;;;;;5087391;28;20042;-71
2021/12/25 15:22:42;;;;;;;3.92;2.25;;;;;;;;;;5095399;28;20047;-70
2021/12/25 15:25:09;;;;;;;5.82;2.20;;;;;;;;;;5095284;28;20146;-71
2021/12/25 15:27:37;;;;;;;7.45;2.38;;;;;;;;;;5092002;28;20040;-71
2021/12/25 15:30:08;;;;;;;3.80;1.92;;;;;;;;;;5073688;28;20044;-71
2021/12/25 15:32:42;;;;;;;10.25;3.40;;;;;;;;;;5084492;28;20040;-70
2021/12/25 15:35:09;;;;;;;8.20;3.80;;;;;;;;;;5094897;28;20044;-70
2021/12/25 15:37:39;;;;;;;10.25;2.97;;;;;;;;;;5094436;28;20056;-71
2021/12/25 15:40:16;;;;;;;5.30;2.20;;;;;;;;;;5094131;28;20109;-71
2021/12/25 15:42:42;;;;;;;5.35;2.20;;;;;;;;;;5095256;28;20048;-70
2021/12/25 15:45:09;;;;;;;6.53;3.00;;;;;;;;;;5093872;28;20066;-71
2021/12/25 15:47:35;;;;;;;4.28;2.28;;;;;;;;;;5094789;28;20047;-71
2021/12/25 15:50:01;;;;;;;11.95;3.60;;;;;;;;;;5079794;28;20127;-71
2021/12/25 15:52:29;;;;;;;6.60;3.92;;;;;;;;;;5075010;28;20052;-71
2021/12/25 15:54:55;;;;;;;10.48;4.15;;;;;;;;;;5094662;28;20052;-70
2021/12/25 15:57:22;;;;;;;6.20;3.05;;;;;;;;;;5093347;28;20040;-71
2021/12/25 15:59:48;;;;;;;5.53;2.92;;;;;;;;;;5087125;28;20519;-71
2021/12/25 16:02:16;;;;;;;6.32;2.65;;;;;;;;;;5092962;28;20123;-71
2021/12/25 16:04:42;;;;;;;7.30;3.28;;;;;;;;;;5094449;28;20698;-71
2021/12/25 16:07:09;;;;;;;10.93;5.75;;;;;;;;;;5093967;28;20047;-72
2021/12/25 16:09:35;;;;;;;12.35;5.38;;;;;;;;;;5093704;28;20148;-71
2021/12/25 16:12:01;;;;;;;16.25;8.20;;;;;;;;;;5074857;28;20045;-71
2021/12/25 16:14:28;;;;;;;10.43;5.72;;;;;;;;;;5073929;28;20044;-71